sensor_id;sensor_type;location;lat;lon;timestamp;pressure;altitude;pressure_sealevel;temperature;humidity
54806;BME280;62866;55.776;37.496;2022-09-09T00:04:51;100555.38;;;7.62;73.37
54806;BME280;62866;55.776;37.496;2022-09-09T00:07:31;100586.84;;;7.76;73.89
54806;BME280;62866;55.776;37.496;2022-09-09T00:10:29;100579.69;;;7.77;73.96
54806;BME280;62866;55.776;37.496;2022-09-09T00:13:15;100583.00;;;7.79;73.97
54806;BME280;62866;55.776;37.496;2022-09-09T00:21:17;100573.13;;;7.71;73.90
54806;BME280;62866;55.776;37.496;2022-09-09T00:23:55;100579.34;;;7.80;74.30
54806;BME280;62866;55.776;37.496;2022-09-09T00:26:43;100583.56;;;7.82;74.20
54806;BME280;62866;55.776;37.496;2022-09-09T00:32:11;100585.38;;;7.82;74.33
54806;BME280;62866;55.776;37.496;2022-09-09T00:34:41;100581.19;;;7.79;74.10
54806;BME280;62866;55.776;37.496;2022-09-09T00:37:09;100590.69;;;7.82;74.33
54806;BME280;62866;55.776;37.496;2022-09-09T00:39:38;100594.34;;;7.81;74.48
54806;BME280;62866;55.776;37.496;2022-09-09T00:44:39;100592.53;;;7.81;74.00
54806;BME280;62866;55.776;37.496;2022-09-09T00:55:49;100603.38;;;7.70;74.74
54806;BME280;62866;55.776;37.496;2022-09-09T00:58:19;100584.16;;;7.58;74.87
54806;BME280;62866;55.776;37.496;2022-09-09T01:00:51;100606.03;;;7.70;74.90
54806;BME280;62866;55.776;37.496;2022-09-09T01:03:34;100611.22;;;7.72;74.80
54806;BME280;62866;55.776;37.496;2022-09-09T01:11:12;100624.53;;;7.72;75.12
54806;BME280;62866;55.776;37.496;2022-09-09T01:13:41;100606.38;;;7.67;75.01
54806;BME280;62866;55.776;37.496;2022-09-09T01:16:10;100613.03;;;7.71;74.86
54806;BME280;62866;55.776;37.496;2022-09-09T01:18:51;100617.38;;;7.72;74.69
54806;BME280;62866;55.776;37.496;2022-09-09T01:26:43;100627.31;;;7.52;75.76
54806;BME280;62866;55.776;37.496;2022-09-09T01:29:12;100627.91;;;7.46;75.81
54806;BME280;62866;55.776;37.496;2022-09-09T01:31:51;100632.13;;;7.39;75.88
54806;BME280;62866;55.776;37.496;2022-09-09T01:34:18;100629.09;;;7.34;76.31
54806;BME280;62866;55.776;37.496;2022-09-09T01:37:00;100634.16;;;7.28;76.96
54806;BME280;62866;55.776;37.496;2022-09-09T01:39:27;100627.59;;;7.22;76.62
54806;BME280;62866;55.776;37.496;2022-09-09T01:41:53;100634.06;;;7.19;76.85
54806;BME280;62866;55.776;37.496;2022-09-09T01:44:21;100641.63;;;7.14;76.68
54806;BME280;62866;55.776;37.496;2022-09-09T01:46:46;100638.72;;;7.08;77.03
54806;BME280;62866;55.776;37.496;2022-09-09T01:49:12;100642.63;;;7.04;77.04
54806;BME280;62866;55.776;37.496;2022-09-09T01:51:39;100647.56;;;6.99;77.16
54806;BME280;62866;55.776;37.496;2022-09-09T01:54:07;100640.16;;;6.93;77.21
54806;BME280;62866;55.776;37.496;2022-09-09T01:56:39;100652.03;;;6.98;77.30
54806;BME280;62866;55.776;37.496;2022-09-09T01:59:28;100651.06;;;6.99;77.47
54806;BME280;62866;55.776;37.496;2022-09-09T02:02:17;100650.09;;;7.00;77.31
54806;BME280;62866;55.776;37.496;2022-09-09T02:04:45;100652.44;;;7.03;77.30
54806;BME280;62866;55.776;37.496;2022-09-09T02:07:30;100650.47;;;7.05;77.47
54806;BME280;62866;55.776;37.496;2022-09-09T02:12:43;100660.81;;;7.08;77.30
54806;BME280;62866;55.776;37.496;2022-09-09T02:15:18;100662.38;;;7.11;77.25
54806;BME280;62866;55.776;37.496;2022-09-09T02:17:45;100660.53;;;7.11;76.63
54806;BME280;62866;55.776;37.496;2022-09-09T02:20:13;100657.84;;;7.11;76.94
54806;BME280;62866;55.776;37.496;2022-09-09T02:22:42;100660.25;;;7.14;77.04
54806;BME280;62866;55.776;37.496;2022-09-09T02:25:12;100663.34;;;7.10;77.27
54806;BME280;62866;55.776;37.496;2022-09-09T02:27:41;100659.16;;;7.07;77.12
54806;BME280;62866;55.776;37.496;2022-09-09T02:30:09;100671.16;;;7.11;77.21
54806;BME280;62866;55.776;37.496;2022-09-09T02:32:36;100667.00;;;7.09;77.27
54806;BME280;62866;55.776;37.496;2022-09-09T02:35:11;100675.38;;;7.04;77.32
54806;BME280;62866;55.776;37.496;2022-09-09T02:37:38;100668.00;;;6.98;77.24
54806;BME280;62866;55.776;37.496;2022-09-09T02:40:05;100673.31;;;6.98;77.67
54806;BME280;62866;55.776;37.496;2022-09-09T02:42:32;100675.56;;;6.93;77.80
54806;BME280;62866;55.776;37.496;2022-09-09T02:44:57;100682.69;;;6.93;77.86
54806;BME280;62866;55.776;37.496;2022-09-09T02:50:22;100695.56;;;6.88;78.08
54806;BME280;62866;55.776;37.496;2022-09-09T02:53:18;100686.94;;;6.76;78.08
54806;BME280;62866;55.776;37.496;2022-09-09T02:58:13;100697.84;;;6.73;78.41
54806;BME280;62866;55.776;37.496;2022-09-09T03:00:43;100697.13;;;6.71;78.85
54806;BME280;62866;55.776;37.496;2022-09-09T03:03:09;100705.53;;;6.66;78.51
54806;BME280;62866;55.776;37.496;2022-09-09T03:05:35;100707.50;;;6.64;78.79
54806;BME280;62866;55.776;37.496;2022-09-09T03:08:02;100705.41;;;6.58;79.13
54806;BME280;62866;55.776;37.496;2022-09-09T03:10:28;100704.69;;;6.56;79.24
54806;BME280;62866;55.776;37.496;2022-09-09T03:12:54;100705.81;;;6.54;79.02
54806;BME280;62866;55.776;37.496;2022-09-09T03:15:20;100712.81;;;6.55;79.21
54806;BME280;62866;55.776;37.496;2022-09-09T03:17:46;100709.47;;;6.53;nan
54806;BME280;62866;55.776;37.496;2022-09-09T03:20:12;100712.13;;;6.53;79.33
54806;BME280;62866;55.776;37.496;2022-09-09T03:22:38;100706.81;;;6.53;79.64
54806;BME280;62866;55.776;37.496;2022-09-09T03:25:04;100712.13;;;6.53;79.69
54806;BME280;62866;55.776;37.496;2022-09-09T03:27:31;100706.94;;;6.51;79.62
54806;BME280;62866;55.776;37.496;2022-09-09T03:29:56;100711.97;;;6.54;79.51
54806;BME280;62866;55.776;37.496;2022-09-09T03:32:22;100715.47;;;6.55;79.44
54806;BME280;62866;55.776;37.496;2022-09-09T03:34:48;100720.38;;;6.59;79.54
54806;BME280;62866;55.776;37.496;2022-09-09T03:37:18;100723.03;;;6.59;79.63
54806;BME280;62866;55.776;37.496;2022-09-09T03:39:44;100721.75;;;6.63;79.71
54806;BME280;62866;55.776;37.496;2022-09-09T03:42:12;100721.75;;;6.63;79.71
54806;BME280;62866;55.776;37.496;2022-09-09T03:44:39;100731.00;;;6.69;79.47
54806;BME280;62866;55.776;37.496;2022-09-09T03:47:07;100729.88;;;6.71;79.37
54806;BME280;62866;55.776;37.496;2022-09-09T03:49:33;100734.78;;;6.76;79.26
54806;BME280;62866;55.776;37.496;2022-09-09T03:51:58;100727.63;;;6.76;79.21
54806;BME280;62866;55.776;37.496;2022-09-09T03:54:25;100737.69;;;6.82;78.94
54806;BME280;62866;55.776;37.496;2022-09-09T03:56:51;100741.91;;;6.85;78.75
54806;BME280;62866;55.776;37.496;2022-09-09T03:59:16;100742.31;;;6.80;78.85
54806;BME280;62866;55.776;37.496;2022-09-09T04:01:42;100748.06;;;6.85;79.03
54806;BME280;62866;55.776;37.496;2022-09-09T04:04:08;100742.75;;;6.85;79.08
54806;BME280;62866;55.776;37.496;2022-09-09T04:06:35;100744.56;;;6.85;79.13
54806;BME280;62866;55.776;37.496;2022-09-09T04:09:00;100741.72;;;6.86;79.00
54806;BME280;62866;55.776;37.496;2022-09-09T04:11:28;100739.91;;;6.87;79.27
54806;BME280;62866;55.776;37.496;2022-09-09T04:13:53;100737.13;;;6.89;78.73
54806;BME280;62866;55.776;37.496;2022-09-09T04:16:19;100741.06;;;6.84;78.72
54806;BME280;62866;55.776;37.496;2022-09-09T04:18:45;100748.06;;;6.85;78.77
54806;BME280;62866;55.776;37.496;2022-09-09T04:21:11;100749.56;;;6.88;78.66
54806;BME280;62866;55.776;37.496;2022-09-09T04:23:37;100741.31;;;6.91;78.75
54806;BME280;62866;55.776;37.496;2022-09-09T04:26:03;100752.66;;;6.93;78.68
54806;BME280;62866;55.776;37.496;2022-09-09T04:28:31;100746.22;;;6.96;78.74
54806;BME280;62866;55.776;37.496;2022-09-09T04:30:57;100746.78;;;6.99;78.49
54806;BME280;62866;55.776;37.496;2022-09-09T04:33:28;100742.84;;;7.03;78.58
54806;BME280;62866;55.776;37.496;2022-09-09T04:35:54;100739.75;;;7.08;78.15
54806;BME280;62866;55.776;37.496;2022-09-09T04:38:19;100747.47;;;7.11;77.91
54806;BME280;62866;55.776;37.496;2022-09-09T04:40:49;100749.81;;;7.14;77.86
54806;BME280;62866;55.776;37.496;2022-09-09T04:43:17;100754.16;;;7.15;77.37
54806;BME280;62866;55.776;37.496;2022-09-09T04:45:46;100749.41;;;7.18;77.33
54806;BME280;62866;55.776;37.496;2022-09-09T04:48:11;100750.91;;;7.21;77.16
54806;BME280;62866;55.776;37.496;2022-09-09T04:50:37;100752.47;;;7.23;76.99
54806;BME280;62866;55.776;37.496;2022-09-09T04:53:04;100747.00;;;7.25;77.02
54806;BME280;62866;55.776;37.496;2022-09-09T04:55:30;100756.66;;;7.36;76.45
54806;BME280;62866;55.776;37.496;2022-09-09T04:57:56;100757.03;;;7.41;76.39
54806;BME280;62866;55.776;37.496;2022-09-09T05:00:23;100760.09;;;7.46;76.50
54806;BME280;62866;55.776;37.496;2022-09-09T05:02:49;100760.91;;;7.56;76.04
54806;BME280;62866;55.776;37.496;2022-09-09T05:05:15;100762.13;;;7.61;76.04
54806;BME280;62866;55.776;37.496;2022-09-09T05:07:40;100761.44;;;7.69;75.88
54806;BME280;62866;55.776;37.496;2022-09-09T05:10:07;100769.34;;;7.79;75.74
54806;BME280;62866;55.776;37.496;2022-09-09T05:12:32;100770.16;;;7.89;75.29
54806;BME280;62866;55.776;37.496;2022-09-09T05:14:58;100773.47;;;8.00;74.96
54806;BME280;62866;55.776;37.496;2022-09-09T05:17:24;100776.09;;;8.10;74.30
54806;BME280;62866;55.776;37.496;2022-09-09T05:19:49;100781.38;;;8.20;74.39
54806;BME280;62866;55.776;37.496;2022-09-09T05:22:21;100777.78;;;8.29;73.49
54806;BME280;62866;55.776;37.496;2022-09-09T05:24:48;100794.69;;;8.47;73.41
54806;BME280;62866;55.776;37.496;2022-09-09T05:27:17;100781.28;;;8.57;73.16
54806;BME280;62866;55.776;37.496;2022-09-09T05:29:44;100775.59;;;8.69;72.63
54806;BME280;62866;55.776;37.496;2022-09-09T05:32:10;100782.56;;;8.88;72.22
54806;BME280;62866;55.776;37.496;2022-09-09T05:34:36;100787.06;;;9.05;71.81
54806;BME280;62866;55.776;37.496;2022-09-09T05:37:03;100789.00;;;9.21;70.63
54806;BME280;62866;55.776;37.496;2022-09-09T05:39:29;100780.13;;;9.38;70.76
54806;BME280;62866;55.776;37.496;2022-09-09T05:41:55;100791.69;;;9.73;70.38
54806;BME280;62866;55.776;37.496;2022-09-09T05:44:21;100783.72;;;11.54;66.39
54806;BME280;62866;55.776;37.496;2022-09-09T05:46:48;100781.22;;;13.53;60.91
54806;BME280;62866;55.776;37.496;2022-09-09T05:49:15;100778.34;;;14.85;56.19
54806;BME280;62866;55.776;37.496;2022-09-09T05:51:41;100784.50;;;14.79;56.23
54806;BME280;62866;55.776;37.496;2022-09-09T05:54:08;100785.09;;;14.96;56.06
54806;BME280;62866;55.776;37.496;2022-09-09T05:56:33;100782.63;;;15.50;55.46
54806;BME280;62866;55.776;37.496;2022-09-09T05:58:59;100776.50;;;17.12;51.64
54806;BME280;62866;55.776;37.496;2022-09-09T06:01:31;100784.50;;;18.62;48.83
54806;BME280;62866;55.776;37.496;2022-09-09T06:03:58;100781.72;;;19.81;44.95
54806;BME280;62866;55.776;37.496;2022-09-09T06:06:26;100790.16;;;19.91;41.48
54806;BME280;62866;55.776;37.496;2022-09-09T06:08:54;100792.94;;;19.10;42.28
54806;BME280;62866;55.776;37.496;2022-09-09T06:11:24;100794.44;;;19.06;43.26
54806;BME280;62866;55.776;37.496;2022-09-09T06:13:50;100802.88;;;18.91;42.83
54806;BME280;62866;55.776;37.496;2022-09-09T06:16:24;100805.56;;;18.91;40.67
54806;BME280;62866;55.776;37.496;2022-09-09T06:18:53;100805.19;;;17.66;42.18
54806;BME280;62866;55.776;37.496;2022-09-09T06:21:21;100805.72;;;16.76;43.88
54806;BME280;62866;55.776;37.496;2022-09-09T06:23:47;100808.75;;;16.05;44.06
54806;BME280;62866;55.776;37.496;2022-09-09T06:26:21;100806.13;;;15.84;44.68
54806;BME280;62866;55.776;37.496;2022-09-09T06:28:48;100814.84;;;16.20;47.32
54806;BME280;62866;55.776;37.496;2022-09-09T06:31:17;100813.31;;;15.70;45.19
54806;BME280;62866;55.776;37.496;2022-09-09T06:33:43;100817.94;;;15.06;45.76
54806;BME280;62866;55.776;37.496;2022-09-09T06:36:14;100807.03;;;14.57;47.29
54806;BME280;62866;55.776;37.496;2022-09-09T06:38:41;100810.00;;;14.62;47.90
54806;BME280;62866;55.776;37.496;2022-09-09T06:41:08;100812.09;;;14.81;47.05
54806;BME280;62866;55.776;37.496;2022-09-09T06:43:34;100816.19;;;15.19;46.48
54806;BME280;62866;55.776;37.496;2022-09-09T06:46:12;100810.69;;;16.18;45.54
54806;BME280;62866;55.776;37.496;2022-09-09T06:48:40;100815.94;;;15.14;44.72
54806;BME280;62866;55.776;37.496;2022-09-09T06:51:15;100822.53;;;15.12;44.62
54806;BME280;62866;55.776;37.496;2022-09-09T06:53:42;100819.34;;;14.66;45.00
54806;BME280;62866;55.776;37.496;2022-09-09T06:58:40;100829.34;;;14.21;47.07
54806;BME280;62866;55.776;37.496;2022-09-09T07:01:14;100826.09;;;14.11;47.40
54806;BME280;62866;55.776;37.496;2022-09-09T07:03:40;100823.94;;;14.06;47.37
54806;BME280;62866;55.776;37.496;2022-09-09T07:06:09;100835.63;;;13.84;47.18
54806;BME280;62866;55.776;37.496;2022-09-09T07:08:39;100840.00;;;13.33;48.21
54806;BME280;62866;55.776;37.496;2022-09-09T07:11:06;100843.69;;;13.84;47.35
54806;BME280;62866;55.776;37.496;2022-09-09T07:13:32;100838.88;;;13.27;48.45
54806;BME280;62866;55.776;37.496;2022-09-09T07:16:09;100827.78;;;12.77;49.33
54806;BME280;62866;55.776;37.496;2022-09-09T07:18:36;100859.28;;;13.37;48.53
54806;BME280;62866;55.776;37.496;2022-09-09T07:21:02;100854.34;;;13.63;47.56
54806;BME280;62866;55.776;37.496;2022-09-09T07:23:29;100857.44;;;13.06;48.84
54806;BME280;62866;55.776;37.496;2022-09-09T07:25:55;100854.50;;;12.70;49.72
54806;BME280;62866;55.776;37.496;2022-09-09T07:28:21;100853.03;;;12.60;50.44
54806;BME280;62866;55.776;37.496;2022-09-09T07:30:58;100853.03;;;12.60;49.55
54806;BME280;62866;55.776;37.496;2022-09-09T07:33:25;100856.44;;;12.53;50.38
54806;BME280;62866;55.776;37.496;2022-09-09T07:35:52;100858.38;;;12.68;49.50
54806;BME280;62866;55.776;37.496;2022-09-09T07:38:18;100866.50;;;12.51;50.68
54806;BME280;62866;55.776;37.496;2022-09-09T07:40:44;100862.84;;;12.44;50.88
54806;BME280;62866;55.776;37.496;2022-09-09T07:43:10;100864.88;;;12.42;51.23
54806;BME280;62866;55.776;37.496;2022-09-09T07:45:36;100874.72;;;12.50;50.51
54806;BME280;62866;55.776;37.496;2022-09-09T07:48:03;100873.25;;;12.39;50.82
54806;BME280;62866;55.776;37.496;2022-09-09T07:50:28;100872.16;;;12.18;50.62
54806;BME280;62866;55.776;37.496;2022-09-09T07:52:54;100882.22;;;12.15;50.99
54806;BME280;62866;55.776;37.496;2022-09-09T07:55:21;100872.72;;;12.05;50.99
54806;BME280;62866;55.776;37.496;2022-09-09T07:57:47;100880.75;;;11.97;52.04
54806;BME280;62866;55.776;37.496;2022-09-09T08:00:13;100881.59;;;11.97;51.67
54806;BME280;62866;55.776;37.496;2022-09-09T08:02:40;100874.50;;;12.60;50.76
54806;BME280;62866;55.776;37.496;2022-09-09T08:05:06;100881.97;;;12.72;50.16
54806;BME280;62866;55.776;37.496;2022-09-09T08:07:32;100872.53;;;12.84;49.94
54806;BME280;62866;55.776;37.496;2022-09-09T08:09:57;100880.00;;;13.28;48.59
54806;BME280;62866;55.776;37.496;2022-09-09T08:12:23;100874.78;;;13.49;47.83
54806;BME280;62866;55.776;37.496;2022-09-09T08:14:48;100875.06;;;13.32;48.87
54806;BME280;62866;55.776;37.496;2022-09-09T08:17:14;100881.19;;;13.25;48.14
54806;BME280;62866;55.776;37.496;2022-09-09T08:19:40;100872.03;;;13.12;48.56
54806;BME280;62866;55.776;37.496;2022-09-09T08:22:06;100888.63;;;13.15;49.00
54806;BME280;62866;55.776;37.496;2022-09-09T08:24:33;100869.41;;;13.49;47.81
54806;BME280;62866;55.776;37.496;2022-09-09T08:26:58;100877.88;;;14.42;46.79
54806;BME280;62866;55.776;37.496;2022-09-09T08:29:24;100876.94;;;15.22;45.52
54806;BME280;62866;55.776;37.496;2022-09-09T08:31:56;100876.00;;;15.79;44.48
54806;BME280;62866;55.776;37.496;2022-09-09T08:34:23;100887.78;;;15.29;44.75
54806;BME280;62866;55.776;37.496;2022-09-09T08:36:50;100894.97;;;15.22;45.03
54806;BME280;62866;55.776;37.496;2022-09-09T08:39:19;100890.09;;;14.60;46.13
54806;BME280;62866;55.776;37.496;2022-09-09T08:58:22;100890.97;;;14.96;45.60
54806;BME280;62866;55.776;37.496;2022-09-09T09:09:14;100908.28;;;13.61;46.53
54806;BME280;62866;55.776;37.496;2022-09-09T09:11:53;100894.03;;;13.90;45.06
54806;BME280;62866;55.776;37.496;2022-09-09T09:14:22;100901.94;;;14.06;45.62
54806;BME280;62866;55.776;37.496;2022-09-09T09:16:56;100896.56;;;13.92;46.61
54806;BME280;62866;55.776;37.496;2022-09-09T09:19:23;100888.66;;;13.90;46.92
54806;BME280;62866;55.776;37.496;2022-09-09T09:22:20;100892.84;;;13.93;47.00
54806;BME280;62866;55.776;37.496;2022-09-09T09:25:04;100900.34;;;13.83;47.37
54806;BME280;62866;55.776;37.496;2022-09-09T09:30:20;100902.88;;;13.99;48.35
54806;BME280;62866;55.776;37.496;2022-09-09T09:33:00;100893.25;;;14.63;46.55
54806;BME280;62866;55.776;37.496;2022-09-09T09:35:26;100888.13;;;14.68;45.60
54806;BME280;62866;55.776;37.496;2022-09-09T09:37:52;100889.38;;;14.51;46.15
54806;BME280;62866;55.776;37.496;2022-09-09T09:40:20;100889.06;;;14.31;45.54
54806;BME280;62866;55.776;37.496;2022-09-09T09:42:51;100895.28;;;14.17;46.16
54806;BME280;62866;55.776;37.496;2022-09-09T09:47:58;100902.88;;;13.99;46.63
54806;BME280;62866;55.776;37.496;2022-09-09T09:50:24;100899.16;;;14.00;46.40
54806;BME280;62866;55.776;37.496;2022-09-09T09:52:58;100902.88;;;13.99;46.25
54806;BME280;62866;55.776;37.496;2022-09-09T09:55:25;100886.63;;;14.07;46.40
54806;BME280;62866;55.776;37.496;2022-09-09T09:57:51;100897.50;;;14.28;45.84
54806;BME280;62866;55.776;37.496;2022-09-09T10:00:22;100898.63;;;14.19;45.44
54806;BME280;62866;55.776;37.496;2022-09-09T10:02:49;100897.59;;;14.05;45.42
54806;BME280;62866;55.776;37.496;2022-09-09T10:05:22;100901.00;;;13.99;46.14
54806;BME280;62866;55.776;37.496;2022-09-09T10:08:11;100898.72;;;13.96;46.11
54806;BME280;62866;55.776;37.496;2022-09-09T10:19:03;100896.78;;;13.67;47.49
54806;BME280;62866;55.776;37.496;2022-09-09T10:21:46;100895.53;;;14.07;46.17
54806;BME280;62866;55.776;37.496;2022-09-09T10:38:16;100913.81;;;13.97;46.90
54806;BME280;62866;55.776;37.496;2022-09-09T10:57:08;100891.81;;;13.11;48.34
54806;BME280;62866;55.776;37.496;2022-09-09T10:59:45;100912.66;;;13.09;49.18
54806;BME280;62866;55.776;37.496;2022-09-09T11:02:25;100907.03;;;12.96;47.80
54806;BME280;62866;55.776;37.496;2022-09-09T11:04:56;100908.03;;;12.95;47.16
54806;BME280;62866;55.776;37.496;2022-09-09T11:07:36;100909.50;;;13.05;47.61
54806;BME280;62866;55.776;37.496;2022-09-09T11:10:13;100898.03;;;13.11;47.25
54806;BME280;62866;55.776;37.496;2022-09-09T11:12:43;100907.03;;;13.26;46.67
54806;BME280;62866;55.776;37.496;2022-09-09T11:15:38;100904.81;;;13.53;46.70
54806;BME280;62866;55.776;37.496;2022-09-09T11:18:10;100893.09;;;13.83;45.68
54806;BME280;62866;55.776;37.496;2022-09-09T11:20:38;100897.97;;;14.17;44.38
54806;BME280;62866;55.776;37.496;2022-09-09T11:23:15;100895.94;;;14.19;44.07
54806;BME280;62866;55.776;37.496;2022-09-09T11:25:46;100900.84;;;14.01;45.34
54806;BME280;62866;55.776;37.496;2022-09-09T11:41:50;100908.94;;;13.63;47.35
54806;BME280;62866;55.776;37.496;2022-09-09T11:44:26;100902.66;;;13.48;47.85
54806;BME280;62866;55.776;37.496;2022-09-09T11:46:53;100912.69;;;13.54;47.21
54806;BME280;62866;55.776;37.496;2022-09-09T11:49:42;100904.88;;;13.82;47.21
54806;BME280;62866;55.776;37.496;2022-09-09T11:52:35;100906.28;;;13.93;47.24
54806;BME280;62866;55.776;37.496;2022-09-09T11:55:09;100913.81;;;13.97;47.70
54806;BME280;62866;55.776;37.496;2022-09-09T11:57:36;100897.03;;;13.95;46.74
54806;BME280;62866;55.776;37.496;2022-09-09T12:00:03;100902.41;;;13.95;46.56
54806;BME280;62866;55.776;37.496;2022-09-09T12:02:30;100893.88;;;13.92;46.16
54806;BME280;62866;55.776;37.496;2022-09-09T12:05:09;100907.69;;;13.89;46.40
54806;BME280;62866;55.776;37.496;2022-09-09T12:07:40;100893.34;;;13.59;45.93
54806;BME280;62866;55.776;37.496;2022-09-09T12:12:35;100901.25;;;13.38;45.95
54806;BME280;62866;55.776;37.496;2022-09-09T12:17:43;100890.31;;;13.16;45.87
54806;BME280;62866;55.776;37.496;2022-09-09T12:20:20;100895.72;;;13.31;45.84
54806;BME280;62866;55.776;37.496;2022-09-09T12:23:08;100896.25;;;13.49;46.02
54806;BME280;62866;55.776;37.496;2022-09-09T12:28:18;100885.41;;;13.43;46.00
54806;BME280;62866;55.776;37.496;2022-09-09T12:31:08;100901.00;;;13.24;46.97
54806;BME280;62866;55.776;37.496;2022-09-09T12:33:38;100893.09;;;13.23;47.28
54806;BME280;62866;55.776;37.496;2022-09-09T12:36:12;100891.63;;;13.20;47.30
54806;BME280;62866;55.776;37.496;2022-09-09T12:38:41;100894.69;;;13.09;47.64
54806;BME280;62866;55.776;37.496;2022-09-09T12:41:22;100894.03;;;13.07;48.14
54806;BME280;62866;55.776;37.496;2022-09-09T12:43:47;100899.94;;;13.03;48.65
54806;BME280;62866;55.776;37.496;2022-09-09T12:46:44;100894.16;;;12.83;48.95
54806;BME280;62866;55.776;37.496;2022-09-09T12:51:48;100896.03;;;12.43;49.93
54806;BME280;62866;55.776;37.496;2022-09-09T12:54:14;100895.25;;;12.27;50.42
54806;BME280;62866;55.776;37.496;2022-09-09T12:56:45;100888.09;;;12.19;50.85
54806;BME280;62866;55.776;37.496;2022-09-09T12:59:26;100885.22;;;12.21;50.79
54806;BME280;62866;55.776;37.496;2022-09-09T13:01:59;100882.34;;;12.22;50.92
54806;BME280;62866;55.776;37.496;2022-09-09T13:04:25;100885.69;;;12.32;49.04
54806;BME280;62866;55.776;37.496;2022-09-09T13:06:51;100877.25;;;12.43;48.34
54806;BME280;62866;55.776;37.496;2022-09-09T13:09:18;100887.41;;;12.56;48.43
54806;BME280;62866;55.776;37.496;2022-09-09T13:11:50;100889.56;;;12.69;47.56
54806;BME280;62866;55.776;37.496;2022-09-09T13:14:32;100894.53;;;12.80;47.55
54806;BME280;62866;55.776;37.496;2022-09-09T13:17:01;100883.31;;;12.76;48.02
54806;BME280;62866;55.776;37.496;2022-09-09T13:19:32;100881.75;;;12.82;47.06
54806;BME280;62866;55.776;37.496;2022-09-09T13:22:26;100882.72;;;12.89;47.74
54806;BME280;62866;55.776;37.496;2022-09-09T13:25:20;100894.34;;;13.12;47.87
54806;BME280;62866;55.776;37.496;2022-09-09T13:27:57;100887.44;;;13.18;47.33
54806;BME280;62866;55.776;37.496;2022-09-09T13:30:31;100889.97;;;13.19;47.52
54806;BME280;62866;55.776;37.496;2022-09-09T13:35:31;100878.03;;;13.22;47.51
54806;BME280;62866;55.776;37.496;2022-09-09T13:37:59;100878.69;;;13.47;47.59
54806;BME280;62866;55.776;37.496;2022-09-09T13:40:26;100885.38;;;13.65;47.34
54806;BME280;62866;55.776;37.496;2022-09-09T13:42:55;100871.22;;;13.72;46.99
54806;BME280;62866;55.776;37.496;2022-09-09T13:45:23;100888.66;;;13.90;47.19
54806;BME280;62866;55.776;37.496;2022-09-09T13:47:52;100888.97;;;13.95;47.35
54806;BME280;62866;55.776;37.496;2022-09-09T13:52:53;100883.09;;;13.92;47.67
54806;BME280;62866;55.776;37.496;2022-09-09T13:55:21;100887.13;;;13.96;47.17
54806;BME280;62866;55.776;37.496;2022-09-09T13:57:55;100880.44;;;14.06;47.54
54806;BME280;62866;55.776;37.496;2022-09-09T14:00:23;100877.09;;;14.04;46.84
54806;BME280;62866;55.776;37.496;2022-09-09T14:02:50;100876.63;;;14.01;47.08
54806;BME280;62866;55.776;37.496;2022-09-09T14:05:16;100873.63;;;13.81;47.58
54806;BME280;62866;55.776;37.496;2022-09-09T14:07:43;100870.19;;;13.73;47.50
54806;BME280;62866;55.776;37.496;2022-09-09T14:10:09;100871.59;;;13.68;47.71
54806;BME280;62866;55.776;37.496;2022-09-09T14:12:35;100879.06;;;13.58;47.92
54806;BME280;62866;55.776;37.496;2022-09-09T14:15:05;100879.19;;;13.42;47.87
54806;BME280;62866;55.776;37.496;2022-09-09T14:17:31;100875.97;;;13.24;48.45
54806;BME280;62866;55.776;37.496;2022-09-09T14:19:57;100875.41;;;13.14;48.38
54806;BME280;62866;55.776;37.496;2022-09-09T14:22:23;100873.44;;;13.00;48.48
54806;BME280;62866;55.776;37.496;2022-09-09T14:24:48;100880.03;;;12.89;48.73
54806;BME280;62866;55.776;37.496;2022-09-09T14:27:14;100879.63;;;12.77;49.24
54806;BME280;62866;55.776;37.496;2022-09-09T14:29:40;100873.97;;;12.64;49.59
54806;BME280;62866;55.776;37.496;2022-09-09T14:32:05;100875.56;;;12.50;50.01
54806;BME280;62866;55.776;37.496;2022-09-09T14:34:31;100882.66;;;12.35;50.17
54806;BME280;62866;55.776;37.496;2022-09-09T14:37:00;100870.47;;;12.16;50.99
54806;BME280;62866;55.776;37.496;2022-09-09T14:39:26;100878.72;;;12.07;50.70
54806;BME280;62866;55.776;37.496;2022-09-09T14:41:51;100881.09;;;11.94;50.97
54806;BME280;62866;55.776;37.496;2022-09-09T14:44:16;100869.88;;;11.74;51.12
54806;BME280;62866;55.776;37.496;2022-09-09T14:46:42;100882.59;;;11.72;51.39
54806;BME280;62866;55.776;37.496;2022-09-09T14:49:08;100880.97;;;11.63;51.95
54806;BME280;62866;55.776;37.496;2022-09-09T14:51:35;100885.28;;;11.56;52.15
54806;BME280;62866;55.776;37.496;2022-09-09T14:54:01;100873.75;;;11.47;52.27
54806;BME280;62866;55.776;37.496;2022-09-09T14:56:29;100882.81;;;11.38;52.60
54806;BME280;62866;55.776;37.496;2022-09-09T14:58:56;100876.94;;;11.34;52.91
54806;BME280;62866;55.776;37.496;2022-09-09T15:01:23;100885.50;;;11.38;53.10
54806;BME280;62866;55.776;37.496;2022-09-09T15:03:54;100879.09;;;11.31;53.00
54806;BME280;62866;55.776;37.496;2022-09-09T15:06:21;100870.56;;;11.19;53.36
54806;BME280;62866;55.776;37.496;2022-09-09T15:08:50;100878.09;;;11.08;53.89
54806;BME280;62866;55.776;37.496;2022-09-09T15:11:16;100869.03;;;10.92;54.30
54806;BME280;62866;55.776;37.496;2022-09-09T15:13:42;100877.38;;;10.97;54.79
54806;BME280;62866;55.776;37.496;2022-09-09T15:16:18;100871.88;;;10.99;54.37
54806;BME280;62866;55.776;37.496;2022-09-09T15:18:45;100864.34;;;10.86;54.27